createdAt,value
2023-04-15T00:00:59.043Z,66.60
2023-04-15T00:03:26.797Z,66.60
2023-04-15T00:05:54.322Z,66.70
2023-04-15T00:08:21.801Z,66.70
2023-04-15T00:10:49.432Z,66.70
2023-04-15T00:13:16.726Z,66.70
2023-04-15T00:15:43.951Z,66.80
2023-04-15T00:18:11.308Z,66.80
2023-04-15T00:20:38.600Z,66.80
2023-04-15T00:23:05.900Z,66.80
2023-04-15T00:25:33.253Z,67.00
2023-04-15T00:28:00.498Z,67.00
2023-04-15T00:30:27.848Z,67.10
2023-04-15T00:32:55.601Z,67.30
2023-04-15T00:35:24.193Z,67.20
2023-04-15T00:37:51.643Z,67.20
2023-04-15T00:40:21.212Z,67.50
2023-04-15T00:42:48.606Z,67.50
2023-04-15T00:45:15.977Z,67.40
2023-04-15T00:47:44.387Z,67.50
2023-04-15T00:50:13.874Z,67.60
2023-04-15T00:52:41.783Z,67.80
2023-04-15T00:55:10.241Z,67.80
2023-04-15T00:57:38.492Z,67.70
2023-04-15T01:00:08.276Z,68.00
2023-04-15T01:02:36.968Z,68.70
2023-04-15T01:05:04.995Z,68.20
2023-04-15T01:07:32.973Z,68.30
2023-04-15T01:10:00.347Z,68.40
2023-04-15T01:12:28.374Z,68.30
2023-04-15T01:14:56.866Z,68.40
2023-04-15T01:17:25.799Z,68.40
2023-04-15T01:19:55.230Z,68.40
2023-04-15T01:22:25.254Z,68.30
2023-04-15T01:25:13.560Z,68.40
2023-04-15T01:27:42.648Z,68.30
2023-04-15T01:30:10.787Z,68.30
2023-04-15T01:32:38.320Z,68.30
2023-04-15T01:35:06.095Z,68.50
2023-04-15T01:37:34.054Z,68.60
2023-04-15T01:40:01.307Z,68.60
2023-04-15T01:42:28.715Z,68.50
2023-04-15T01:44:56.120Z,68.50
2023-04-15T01:47:23.707Z,68.70
2023-04-15T01:49:51.068Z,68.80
2023-04-15T01:52:18.786Z,68.60
2023-04-15T01:54:46.287Z,68.70
2023-04-15T01:57:13.581Z,68.70
2023-04-15T01:59:41.233Z,68.80
2023-04-15T02:02:08.656Z,68.90
2023-04-15T02:04:35.914Z,68.90
2023-04-15T02:07:03.187Z,68.80
2023-04-15T02:09:30.507Z,68.70
2023-04-15T02:11:57.746Z,68.80
2023-04-15T02:14:24.979Z,68.90
2023-04-15T02:16:54.886Z,69.00
2023-04-15T02:19:22.351Z,69.00
2023-04-15T02:21:49.621Z,69.10
2023-04-15T02:24:18.332Z,69.30
2023-04-15T02:26:46.818Z,69.40
2023-04-15T02:29:16.007Z,69.30
2023-04-15T02:31:44.144Z,69.40
2023-04-15T02:34:11.915Z,69.50
2023-04-15T02:36:40.591Z,69.70
2023-04-15T02:39:08.102Z,70.00
2023-04-15T02:41:35.749Z,69.90
2023-04-15T02:44:04.360Z,70.00
2023-04-15T02:46:31.869Z,70.40
2023-04-15T02:49:00.355Z,70.50
2023-04-15T02:51:34.243Z,70.80
2023-04-15T02:54:01.711Z,71.10
2023-04-15T02:56:30.360Z,71.30
2023-04-15T02:58:58.605Z,71.30
2023-04-15T03:01:26.534Z,71.90
2023-04-15T03:03:53.926Z,72.60
2023-04-15T03:06:21.378Z,72.60
2023-04-15T03:08:51.009Z,72.80
2023-04-15T03:11:20.278Z,72.70
2023-04-15T03:13:47.601Z,72.60
2023-04-15T03:16:29.754Z,72.40
2023-04-15T03:18:58.672Z,72.10
2023-04-15T03:21:26.887Z,72.20
2023-04-15T03:23:54.633Z,72.50
2023-04-15T03:26:27.199Z,72.50
2023-04-15T03:28:56.617Z,72.70
2023-04-15T03:31:24.518Z,73.00
2023-04-15T03:33:51.777Z,72.90
2023-04-15T03:36:19.020Z,73.40
2023-04-15T03:38:46.500Z,73.90
2023-04-15T03:41:14.133Z,73.60
2023-04-15T03:43:41.385Z,73.80
2023-04-15T03:46:08.793Z,74.00
2023-04-15T03:48:36.315Z,74.20
2023-04-15T03:51:03.668Z,74.00
2023-04-15T03:53:30.885Z,73.80
2023-04-15T03:55:58.129Z,73.80
2023-04-15T03:58:25.592Z,73.70
2023-04-15T04:00:52.937Z,73.80
2023-04-15T04:03:20.362Z,73.90
2023-04-15T04:05:47.989Z,74.00
2023-04-15T04:08:16.460Z,74.00
2023-04-15T04:10:43.810Z,74.10
2023-04-15T04:13:11.305Z,73.90
2023-04-15T04:15:38.616Z,73.90
2023-04-15T04:18:06.043Z,73.80
2023-04-15T04:20:33.720Z,73.50
2023-04-15T04:23:01.081Z,73.20
2023-04-15T04:25:28.408Z,73.00
2023-04-15T04:27:55.688Z,72.80
2023-04-15T04:30:23.219Z,72.70
2023-04-15T04:32:51.794Z,73.00
2023-04-15T04:35:19.146Z,73.20
2023-04-15T04:37:46.403Z,73.80
2023-04-15T04:40:14.062Z,74.70
2023-04-15T04:42:41.704Z,75.80
2023-04-15T04:45:09.392Z,76.80
2023-04-15T04:47:36.878Z,77.50
2023-04-15T04:50:04.537Z,78.10
2023-04-15T04:52:32.172Z,78.30
2023-04-15T04:54:59.367Z,78.20
2023-04-15T04:57:26.751Z,78.30
2023-04-15T04:59:54.001Z,78.40
2023-04-15T05:02:21.703Z,78.50
2023-04-15T05:04:50.520Z,78.60
2023-04-15T05:07:17.951Z,78.80
2023-04-15T05:09:45.232Z,78.70
2023-04-15T05:12:15.210Z,78.60
2023-04-15T05:14:42.647Z,78.60
2023-04-15T05:17:10.115Z,78.70
2023-04-15T05:19:37.352Z,79.00
2023-04-15T05:22:04.609Z,79.20
2023-04-15T05:24:31.861Z,80.00
2023-04-15T05:26:59.099Z,80.00
2023-04-15T05:29:26.495Z,80.60
2023-04-15T05:31:53.752Z,81.40
2023-04-15T05:34:21.023Z,81.80
2023-04-15T05:36:48.308Z,82.00
2023-04-15T05:39:15.693Z,82.60
2023-04-15T05:41:42.928Z,83.70
2023-04-15T05:44:10.268Z,83.50
2023-04-15T05:46:38.003Z,83.50
2023-04-15T05:49:05.343Z,83.60
2023-04-15T05:51:32.646Z,84.10
2023-04-15T05:53:59.967Z,84.40
2023-04-15T05:56:27.472Z,84.50
2023-04-15T05:58:54.940Z,84.50
2023-04-15T06:01:22.428Z,84.20
2023-04-15T06:03:50.419Z,84.10
2023-04-15T06:06:17.729Z,84.00
2023-04-15T06:08:45.051Z,84.00
2023-04-15T06:11:12.529Z,84.00
2023-04-15T06:13:39.771Z,84.10
2023-04-15T06:16:08.147Z,83.80
2023-04-15T06:18:35.543Z,83.90
2023-04-15T06:21:02.844Z,83.80
2023-04-15T06:23:30.312Z,83.70
2023-04-15T06:25:57.583Z,83.40
2023-04-15T06:28:24.850Z,83.30
2023-04-15T06:30:53.066Z,83.20
2023-04-15T06:33:20.373Z,83.10
2023-04-15T06:35:48.216Z,83.10
2023-04-15T06:38:15.505Z,83.20
2023-04-15T06:40:43.030Z,82.90
2023-04-15T06:43:10.453Z,82.90
2023-04-15T06:45:37.765Z,83.10
2023-04-15T06:48:05.598Z,82.40
2023-04-15T06:50:32.927Z,81.30
2023-04-15T06:53:00.193Z,80.70
2023-04-15T06:55:27.680Z,80.60
2023-04-15T06:57:55.021Z,80.70
2023-04-15T07:00:22.511Z,80.70
2023-04-15T07:02:49.815Z,81.00
2023-04-15T07:05:17.263Z,81.00
2023-04-15T07:07:45.503Z,81.30
2023-04-15T07:10:12.831Z,81.30
2023-04-15T07:12:40.255Z,81.20
2023-04-15T07:15:07.866Z,81.00
2023-04-15T07:17:35.240Z,81.50
2023-04-15T07:20:06.388Z,81.70
2023-04-15T07:22:34.357Z,81.50
2023-04-15T07:25:01.604Z,81.30
2023-04-15T07:27:28.993Z,81.60
2023-04-15T07:29:56.628Z,81.70
2023-04-15T07:32:23.894Z,81.60
2023-04-15T07:34:51.264Z,81.10
2023-04-15T07:37:19.107Z,81.30
2023-04-15T07:39:46.475Z,80.90
2023-04-15T07:42:13.879Z,81.10
2023-04-15T07:44:41.363Z,80.80
2023-04-15T07:47:08.771Z,81.00
2023-04-15T07:49:36.123Z,81.20
2023-04-15T07:52:03.864Z,81.50
2023-04-15T07:54:31.297Z,81.30
2023-04-15T07:56:59.294Z,81.00
2023-04-15T07:59:27.888Z,81.60
2023-04-15T08:01:55.426Z,80.60
2023-04-15T08:04:23.250Z,80.80
2023-04-15T08:06:50.850Z,80.40
2023-04-15T08:09:18.319Z,80.20
2023-04-15T08:11:46.249Z,80.50
2023-04-15T08:14:13.714Z,81.00
2023-04-15T08:16:41.183Z,80.60
2023-04-15T08:19:08.600Z,81.10
2023-04-15T08:21:36.795Z,81.30
2023-04-15T08:24:04.362Z,81.60
2023-04-15T08:26:31.859Z,81.90
2023-04-15T08:28:59.387Z,80.50
2023-04-15T08:31:27.979Z,80.40
2023-04-15T08:33:57.818Z,80.30
2023-04-15T08:36:25.390Z,80.30
2023-04-15T08:38:52.912Z,80.60
2023-04-15T08:41:25.670Z,80.90
2023-04-15T08:44:04.773Z,81.00
2023-04-15T08:46:35.005Z,81.60
2023-04-15T08:49:05.308Z,81.80
2023-04-15T08:51:34.046Z,81.70
2023-04-15T08:54:03.620Z,81.50
2023-04-15T08:56:33.369Z,81.00
2023-04-15T08:59:00.984Z,81.20
2023-04-15T09:01:28.960Z,80.10
2023-04-15T09:03:57.892Z,80.60
2023-04-15T09:06:27.458Z,80.80
2023-04-15T09:08:54.944Z,81.40
2023-04-15T09:11:22.939Z,81.10
2023-04-15T09:13:50.925Z,80.20
2023-04-15T09:16:18.922Z,80.40
2023-04-15T09:18:46.350Z,81.10
2023-04-15T09:21:19.315Z,81.30
2023-04-15T09:24:00.148Z,79.10
2023-04-15T09:26:40.388Z,78.40
2023-04-15T09:29:15.069Z,78.10
2023-04-15T09:31:43.658Z,78.90
2023-04-15T09:34:11.409Z,76.70
2023-04-15T09:36:49.760Z,77.00
2023-04-15T09:39:18.241Z,76.30
2023-04-15T09:41:45.729Z,76.70
2023-04-15T09:44:26.162Z,76.90
2023-04-15T09:46:53.731Z,78.40
2023-04-15T09:49:21.214Z,78.10
2023-04-15T09:52:04.032Z,78.00
2023-04-15T09:54:37.275Z,77.20
2023-04-15T09:57:10.935Z,76.70
2023-04-15T09:59:38.313Z,77.60
2023-04-15T10:02:09.395Z,77.60
2023-04-15T10:04:40.825Z,77.50
2023-04-15T10:07:09.954Z,77.70
2023-04-15T10:09:41.578Z,77.40
2023-04-15T10:12:09.469Z,77.50
2023-04-15T10:14:39.006Z,77.30
2023-04-15T10:17:08.484Z,77.10
2023-04-15T10:19:38.230Z,76.20
2023-04-15T10:22:06.720Z,77.00
2023-04-15T10:24:34.268Z,76.00
2023-04-15T10:27:03.944Z,77.20
2023-04-15T10:29:31.529Z,77.80
2023-04-15T10:32:00.148Z,76.00
2023-04-15T10:34:28.150Z,76.40
2023-04-15T10:37:05.393Z,76.00
2023-04-15T10:39:35.431Z,75.80
2023-04-15T10:42:11.424Z,77.60
2023-04-15T10:44:43.440Z,76.70
2023-04-15T10:47:21.724Z,75.80
2023-04-15T10:50:00.582Z,77.10
2023-04-15T10:52:29.545Z,75.30
2023-04-15T10:55:20.492Z,75.20
2023-04-15T10:57:51.418Z,75.70
2023-04-15T11:00:20.330Z,75.30
2023-04-15T11:02:55.867Z,76.00
2023-04-15T11:05:43.150Z,74.40
2023-04-15T11:08:14.351Z,75.90
2023-04-15T11:10:41.563Z,75.50
2023-04-15T11:13:11.611Z,75.30
2023-04-15T11:15:41.109Z,75.60
2023-04-15T11:18:12.752Z,76.30
2023-04-15T11:20:41.414Z,76.10
2023-04-15T11:23:14.376Z,76.10
2023-04-15T11:25:43.865Z,75.80
2023-04-15T11:28:12.774Z,77.00
2023-04-15T11:30:42.346Z,76.00
2023-04-15T11:33:10.980Z,76.30
2023-04-15T11:35:38.647Z,77.10
2023-04-15T11:38:08.780Z,77.80
2023-04-15T11:40:36.562Z,76.30
2023-04-15T11:43:23.445Z,76.10
2023-04-15T11:45:55.099Z,76.90
2023-04-15T11:48:25.106Z,77.00
2023-04-15T11:51:00.962Z,77.60
2023-04-15T11:53:48.574Z,77.60
2023-04-15T11:56:23.861Z,77.20
2023-04-15T11:58:57.320Z,77.40
2023-04-15T12:01:36.467Z,77.90
2023-04-15T12:04:13.019Z,77.80
2023-04-15T12:06:41.435Z,77.80
2023-04-15T12:09:18.008Z,77.90
2023-04-15T12:11:50.024Z,79.20
2023-04-15T12:14:31.233Z,79.20
2023-04-15T12:17:01.621Z,78.70
2023-04-15T12:19:32.624Z,79.00
2023-04-15T12:22:04.825Z,79.00
2023-04-15T12:24:33.730Z,79.00
2023-04-15T12:27:08.674Z,79.30
2023-04-15T12:29:38.813Z,79.60
2023-04-15T12:32:11.338Z,79.00
2023-04-15T12:34:40.836Z,78.30
2023-04-15T12:37:10.377Z,79.20
2023-04-15T12:39:40.792Z,79.70
2023-04-15T12:42:09.119Z,79.90
2023-04-15T12:44:37.672Z,81.00
2023-04-15T12:47:05.653Z,81.70
2023-04-15T12:49:33.690Z,81.80
2023-04-15T12:52:02.121Z,81.00
2023-04-15T12:54:30.743Z,80.80
2023-04-15T12:56:59.352Z,81.50
2023-04-15T12:59:26.916Z,81.60
2023-04-15T13:01:54.934Z,82.50
2023-04-15T13:04:22.802Z,82.20
2023-04-15T13:06:50.947Z,82.60
2023-04-15T13:09:18.224Z,82.70
2023-04-15T13:11:45.507Z,83.20
2023-04-15T13:14:13.236Z,83.90
2023-04-15T13:16:41.072Z,84.50
2023-04-15T13:19:08.486Z,84.50
2023-04-15T13:21:36.502Z,84.80
2023-04-15T13:24:05.276Z,85.10
2023-04-15T13:26:33.032Z,85.20
2023-04-15T13:29:01.408Z,85.50
2023-04-15T13:31:28.870Z,85.60
2023-04-15T13:33:57.641Z,85.50
2023-04-15T13:36:25.105Z,85.40
2023-04-15T13:38:52.434Z,85.70
2023-04-15T13:41:21.310Z,85.80
2023-04-15T13:43:48.580Z,85.60
2023-04-15T13:46:16.235Z,85.60
2023-04-15T13:48:43.686Z,85.70
2023-04-15T13:51:10.952Z,86.00
2023-04-15T13:53:39.572Z,86.00
2023-04-15T13:56:08.203Z,85.80
2023-04-15T13:58:36.267Z,86.50
2023-04-15T14:01:05.686Z,86.20
2023-04-15T14:03:34.991Z,86.30
2023-04-15T14:06:02.534Z,86.30
2023-04-15T14:08:30.900Z,86.10
2023-04-15T14:10:58.166Z,86.60
2023-04-15T14:13:25.521Z,86.10
2023-04-15T14:15:53.061Z,86.20
2023-04-15T14:18:20.680Z,85.60
2023-04-15T14:20:47.920Z,86.00
2023-04-15T14:23:15.244Z,86.20
2023-04-15T14:25:42.481Z,85.90
2023-04-15T14:28:09.850Z,85.60
2023-04-15T14:30:37.292Z,85.60
2023-04-15T14:33:04.918Z,85.50
2023-04-15T14:35:32.683Z,85.60
2023-04-15T14:38:00.154Z,85.70
2023-04-15T14:40:27.402Z,85.60
2023-04-15T14:42:54.668Z,85.50
2023-04-15T14:45:21.860Z,85.60
2023-04-15T14:47:49.170Z,85.40
2023-04-15T14:50:17.321Z,85.60
2023-04-15T14:52:44.565Z,85.70
2023-04-15T14:55:12.888Z,86.00
2023-04-15T14:57:41.785Z,85.70
2023-04-15T15:00:13.749Z,85.70
2023-04-15T15:02:43.846Z,85.80
2023-04-15T15:05:12.294Z,85.50
2023-04-15T15:07:41.219Z,85.60
2023-04-15T15:10:08.944Z,85.70
2023-04-15T15:12:36.467Z,85.70
2023-04-15T15:15:09.259Z,85.80
2023-04-15T15:17:43.425Z,85.50
2023-04-15T15:20:11.148Z,85.40
2023-04-15T15:22:38.392Z,85.50
2023-04-15T15:25:06.083Z,85.40
2023-04-15T15:27:33.502Z,85.40
2023-04-15T15:30:00.853Z,85.40
2023-04-15T15:32:28.226Z,85.70
2023-04-15T15:34:55.485Z,85.70
2023-04-15T15:37:22.769Z,85.70
2023-04-15T15:39:50.978Z,85.70
2023-04-15T15:42:19.847Z,85.90
2023-04-15T15:44:49.283Z,86.10
2023-04-15T15:47:17.153Z,85.90
2023-04-15T15:49:44.592Z,86.20
2023-04-15T15:52:12.139Z,86.30
2023-04-15T15:54:41.329Z,86.40
2023-04-15T15:57:08.667Z,86.70
2023-04-15T15:59:36.031Z,86.40
2023-04-15T16:02:03.407Z,86.40
2023-04-15T16:04:31.190Z,86.60
2023-04-15T16:06:58.630Z,86.50
2023-04-15T16:09:25.954Z,86.50
2023-04-15T16:11:53.268Z,86.40
2023-04-15T16:14:21.929Z,86.40
2023-04-15T16:16:49.307Z,86.40
2023-04-15T16:19:16.520Z,86.40
2023-04-15T16:21:44.796Z,86.50
2023-04-15T16:24:12.074Z,86.50
2023-04-15T16:26:41.155Z,86.40
2023-04-15T16:29:08.769Z,86.30
2023-04-15T16:31:37.479Z,86.30
2023-04-15T16:34:04.743Z,86.30
2023-04-15T16:36:33.867Z,86.20
2023-04-15T16:39:01.400Z,86.30
2023-04-15T16:41:29.364Z,86.10
2023-04-15T16:43:58.717Z,86.10
2023-04-15T16:46:26.092Z,86.00
2023-04-15T16:48:53.541Z,86.00
2023-04-15T16:51:20.866Z,86.00
2023-04-15T16:53:49.126Z,85.90
2023-04-15T16:56:16.827Z,85.80
2023-04-15T16:58:44.175Z,85.80
2023-04-15T17:01:11.621Z,85.90
2023-04-15T17:03:40.393Z,85.80
2023-04-15T17:06:07.875Z,85.90
2023-04-15T17:08:35.125Z,85.90
2023-04-15T17:11:02.417Z,86.00
2023-04-15T17:13:29.840Z,86.00
2023-04-15T17:15:57.221Z,86.00
2023-04-15T17:18:24.648Z,86.20
2023-04-15T17:20:51.882Z,86.30
2023-04-15T17:23:19.648Z,86.40
2023-04-15T17:25:47.944Z,86.40
2023-04-15T17:28:15.323Z,86.40
2023-04-15T17:30:42.576Z,86.50
2023-04-15T17:33:55.722Z,86.50
2023-04-15T17:35:58.217Z,86.50
2023-04-15T17:38:26.481Z,86.40
2023-04-15T17:40:53.916Z,86.40
2023-04-15T17:43:21.361Z,86.40
2023-04-15T17:45:48.661Z,86.40
2023-04-15T17:48:16.706Z,86.40
2023-04-15T17:50:44.070Z,86.40
2023-04-15T17:53:11.743Z,86.50
2023-04-15T17:55:38.991Z,86.40
2023-04-15T17:58:06.327Z,86.40
2023-04-15T18:00:34.459Z,86.50
2023-04-15T18:03:01.879Z,86.50
2023-04-15T18:05:30.354Z,86.50
2023-04-15T18:07:57.698Z,86.50
2023-04-15T18:10:25.020Z,86.50
2023-04-15T18:12:52.345Z,86.40
2023-04-15T18:15:19.812Z,86.40
2023-04-15T18:17:48.141Z,86.50
2023-04-15T18:20:15.512Z,86.50
2023-04-15T18:22:43.669Z,86.60
2023-04-15T18:25:11.434Z,86.50
2023-04-15T18:27:41.644Z,86.50
2023-04-15T18:30:11.612Z,86.50
2023-04-15T18:32:39.663Z,86.50
2023-04-15T18:35:07.729Z,86.50
2023-04-15T18:37:35.656Z,86.50
2023-04-15T18:40:03.262Z,86.60
2023-04-15T18:42:31.148Z,86.70
2023-04-15T18:44:58.855Z,87.40
2023-04-15T18:47:27.887Z,87.00
2023-04-15T18:49:55.355Z,87.20
2023-04-15T18:52:22.637Z,87.50
2023-04-15T18:54:49.963Z,87.60
2023-04-15T18:57:20.452Z,87.70
2023-04-15T18:59:59.026Z,87.70
2023-04-15T19:02:26.540Z,87.70
2023-04-15T19:04:53.871Z,87.90
2023-04-15T19:07:21.692Z,87.90
2023-04-15T19:09:48.993Z,87.90
2023-04-15T19:12:17.334Z,87.90
2023-04-15T19:14:44.541Z,88.10
2023-04-15T19:17:11.940Z,88.30
2023-04-15T19:19:39.195Z,88.50
2023-04-15T19:22:06.866Z,88.50
2023-04-15T19:24:34.266Z,88.50
2023-04-15T19:27:02.120Z,88.50
2023-04-15T19:29:29.323Z,88.50
2023-04-15T19:31:56.639Z,88.50
2023-04-15T19:34:25.183Z,88.40
2023-04-15T19:36:55.026Z,88.50
2023-04-15T19:39:22.309Z,88.50
2023-04-15T19:41:49.980Z,88.60
2023-04-15T19:44:17.348Z,88.70
2023-04-15T19:46:45.055Z,88.90
2023-04-15T19:49:12.551Z,89.10
2023-04-15T19:51:39.750Z,89.10
2023-04-15T19:54:07.103Z,89.30
2023-04-15T19:56:34.667Z,89.30
2023-04-15T19:59:02.738Z,89.50
2023-04-15T20:01:30.153Z,89.60
2023-04-15T20:03:57.713Z,89.60
2023-04-15T20:06:25.168Z,89.60
2023-04-15T20:08:52.436Z,89.60
2023-04-15T20:11:19.991Z,89.60
2023-04-15T20:13:47.225Z,89.60
2023-04-15T20:16:14.537Z,89.60
2023-04-15T20:18:41.861Z,89.70
2023-04-15T20:21:09.296Z,89.70
2023-04-15T20:23:37.162Z,89.60
2023-04-15T20:26:04.562Z,89.60
2023-04-15T20:28:31.833Z,89.60
2023-04-15T20:31:02.789Z,89.60
2023-04-15T20:33:30.148Z,89.50
2023-04-15T20:35:57.507Z,89.60
2023-04-15T20:38:25.101Z,89.50
2023-04-15T20:40:52.449Z,89.50
2023-04-15T20:43:21.582Z,89.50
2023-04-15T20:45:51.194Z,89.50
2023-04-15T20:48:19.364Z,89.40
2023-04-15T20:50:46.549Z,89.40
2023-04-15T20:53:13.842Z,89.40
2023-04-15T20:55:41.222Z,89.30
2023-04-15T20:58:08.485Z,89.20
2023-04-15T21:00:36.069Z,89.30
2023-04-15T21:03:04.254Z,89.20
2023-04-15T21:05:31.620Z,89.10
2023-04-15T21:07:58.930Z,89.10
2023-04-15T21:10:26.123Z,89.00
2023-04-15T21:12:53.374Z,89.00
2023-04-15T21:15:20.704Z,89.00
2023-04-15T21:17:48.086Z,88.90
2023-04-15T21:20:15.467Z,89.00
2023-04-15T21:22:42.776Z,89.00
2023-04-15T21:25:10.268Z,89.00
2023-04-15T21:27:37.630Z,89.00
2023-04-15T21:30:05.405Z,89.00
2023-04-15T21:32:32.774Z,89.60
2023-04-15T21:35:00.151Z,89.00
2023-04-15T21:37:27.605Z,88.90
2023-04-15T21:39:54.866Z,89.00
2023-04-15T21:42:22.134Z,88.90
2023-04-15T21:44:49.398Z,88.80
2023-04-15T21:47:16.778Z,88.80
2023-04-15T21:49:44.269Z,88.70
2023-04-15T21:52:11.487Z,88.70
2023-04-15T21:54:38.733Z,88.70
2023-04-15T21:57:06.123Z,88.60
2023-04-15T21:59:33.398Z,88.60
2023-04-15T22:02:00.924Z,88.70
2023-04-15T22:04:28.329Z,88.60
2023-04-15T22:06:59.836Z,88.60
2023-04-15T22:09:27.609Z,88.60
2023-04-15T22:11:54.878Z,88.70
2023-04-15T22:14:22.076Z,88.70
2023-04-15T22:16:49.483Z,88.70
2023-04-15T22:19:16.770Z,88.60
2023-04-15T22:21:44.141Z,88.60
2023-04-15T22:24:38.719Z,88.60
2023-04-15T22:27:02.879Z,88.50
2023-04-15T22:29:30.483Z,88.50
2023-04-15T22:31:58.097Z,88.50
2023-04-15T22:34:25.420Z,88.50
2023-04-15T22:36:53.086Z,88.50
2023-04-15T22:39:21.256Z,88.40
2023-04-15T22:41:50.051Z,88.30
2023-04-15T22:44:17.434Z,88.20
2023-04-15T22:46:44.858Z,88.10
2023-04-15T22:49:12.249Z,88.10
2023-04-15T22:51:39.443Z,88.10
2023-04-15T22:54:06.744Z,88.20
2023-04-15T22:56:34.202Z,88.10
2023-04-15T22:59:01.625Z,88.10
2023-04-15T23:01:28.987Z,88.00
2023-04-15T23:04:04.702Z,88.00
2023-04-15T23:06:33.453Z,88.00
2023-04-15T23:09:00.704Z,87.90
2023-04-15T23:11:28.007Z,87.90
2023-04-15T23:13:55.340Z,87.90
2023-04-15T23:16:23.150Z,87.80
2023-04-15T23:18:50.533Z,87.80
2023-04-15T23:21:17.813Z,87.80
2023-04-15T23:23:45.077Z,87.80
2023-04-15T23:26:12.326Z,87.90
2023-04-15T23:28:39.734Z,88.00
2023-04-15T23:31:07.100Z,88.20
2023-04-15T23:33:34.456Z,88.20
2023-04-15T23:36:01.676Z,88.20
2023-04-15T23:38:29.059Z,88.30
2023-04-15T23:40:56.369Z,88.30
2023-04-15T23:43:23.647Z,88.40
2023-04-15T23:45:51.272Z,88.30
2023-04-15T23:48:18.583Z,88.30
2023-04-15T23:50:45.830Z,88.20
2023-04-15T23:53:13.083Z,88.30
2023-04-15T23:55:40.367Z,88.40
2023-04-15T23:58:07.655Z,88.50
